Time;durP1;ratioP1;P1;durP2;ratioP2;P2;SDS_P1;SDS_P2;PMS_P1;PMS_P2;Temp;Humidity;BMP_temperature;BMP_pressure;BME280_temperature;BME280_humidity;BME280_pressure;Samples;Min_cycle;Max_cycle;Signal;HPM_P1;HPM_P2
2023/07/21 00:01:04;;;;;;;5.57;5.20;;;17.40;76.90;;;;;;5003532;28;20492;-78
2023/07/21 00:03:32;;;;;;;4.60;4.20;;;17.40;77.00;;;;;;5003532;28;20681;-77
2023/07/21 00:06:01;;;;;;;5.00;4.60;;;17.30;76.70;;;;;;5003607;28;20760;-76
2023/07/21 00:08:29;;;;;;;3.93;3.73;;;17.30;77.20;;;;;;5003492;28;20448;-79
2023/07/21 00:10:57;;;;;;;4.90;4.50;;;17.40;76.70;;;;;;5003808;28;20806;-78
2023/07/21 00:13:25;;;;;;;4.50;4.10;;;17.30;76.90;;;;;;4986448;28;20748;-79
2023/07/21 00:15:53;;;;;;;4.77;4.30;;;17.40;77.20;;;;;;5003458;28;20561;-78
2023/07/21 00:18:21;;;;;;;4.97;4.47;;;17.30;77.20;;;;;;5002869;28;20448;-78
2023/07/21 00:20:50;;;;;;;4.83;4.50;;;17.30;77.40;;;;;;5001695;28;20509;-79
2023/07/21 00:23:20;;;;;;;4.13;3.90;;;17.30;77.30;;;;;;5002748;28;20436;-76
2023/07/21 00:25:47;;;;;;;5.30;4.90;;;17.30;77.40;;;;;;4985614;28;20418;-76
2023/07/21 00:28:14;;;;;;;4.17;3.87;;;17.40;77.30;;;;;;5002999;28;20524;-79
2023/07/21 00:30:41;;;;;;;4.60;4.20;;;17.30;77.30;;;;;;5002985;28;20485;-75
2023/07/21 00:33:08;;;;;;;5.27;4.87;;;17.30;78.50;;;;;;5003257;28;20437;-79
2023/07/21 00:35:35;;;;;;;5.47;4.97;;;17.30;77.70;;;;;;5003012;28;20699;-76
2023/07/21 00:38:03;;;;;;;4.60;4.30;;;17.30;76.70;;;;;;5002712;28;20535;-78
2023/07/21 00:40:33;;;;;;;4.40;4.10;;;17.40;77.30;;;;;;5002918;28;20538;-76
2023/07/21 00:43:00;;;;;;;4.90;4.60;;;17.30;78.40;;;;;;5002934;28;20463;-76
2023/07/21 00:45:29;;;;;;;4.70;4.40;;;17.20;77.90;;;;;;5002530;28;20789;-75
2023/07/21 00:47:56;;;;;;;4.63;4.23;;;17.20;78.00;;;;;;5002835;28;20494;-78
2023/07/21 00:50:24;;;;;;;4.90;4.60;;;17.20;77.90;;;;;;5002110;28;20656;-78
2023/07/21 00:52:51;;;;;;;6.40;4.20;;;17.10;77.90;;;;;;5001822;28;20445;-76
2023/07/21 00:55:19;;;;;;;5.03;4.63;;;17.20;78.00;;;;;;5002554;28;20470;-77
2023/07/21 00:57:46;;;;;;;5.10;4.80;;;17.10;78.00;;;;;;5002542;28;20444;-79
2023/07/21 01:00:13;;;;;;;4.47;4.17;;;17.20;78.10;;;;;;5002116;28;21003;-78
2023/07/21 01:02:40;;;;;;;4.57;4.23;;;17.10;78.50;;;;;;5002533;28;20495;-77
2023/07/21 01:05:08;;;;;;;4.67;4.27;;;17.20;78.20;;;;;;5002192;28;20451;-80
2023/07/21 01:07:38;;;;;;;4.70;4.40;;;17.10;78.20;;;;;;5002400;28;20503;-78
2023/07/21 01:10:07;;;;;;;5.03;4.73;;;17.10;78.40;;;;;;4985410;28;20499;-77
2023/07/21 01:12:35;;;;;;;4.57;4.27;;;17.00;78.40;;;;;;5002199;28;20459;-78
2023/07/21 01:15:02;;;;;;;6.20;5.70;;;17.00;78.50;;;;;;5002393;28;20410;-79
2023/07/21 01:17:29;;;;;;;5.27;4.87;;;16.90;78.80;;;;;;5002404;28;20736;-78
2023/07/21 01:19:58;;;;;;;5.43;4.30;;;16.90;78.70;;;;;;5002236;28;20436;-77
2023/07/21 01:22:31;;;;;;;5.37;5.03;;;17.00;78.90;;;;;;5002420;28;20752;-77
2023/07/21 01:25:11;;;;;;;5.40;5.03;;;16.90;79.00;;;;;;4995928;28;20541;-81
2023/07/21 01:27:40;;;;;;;5.67;5.20;;;16.80;79.30;;;;;;4998621;28;20410;-76
2023/07/21 01:30:13;;;;;;;5.27;4.90;;;16.70;79.50;;;;;;5005231;28;20510;-79
2023/07/21 01:32:46;;;;;;;5.67;4.43;;;16.70;79.70;;;;;;5001974;28;20649;-78
2023/07/21 01:35:17;;;;;;;5.40;5.00;;;16.70;79.90;;;;;;5001625;28;20630;-79
2023/07/21 01:37:46;;;;;;;4.90;4.60;;;16.70;79.80;;;;;;5000621;28;20595;-77
2023/07/21 01:40:15;;;;;;;5.30;4.80;;;16.80;79.70;;;;;;5001781;28;20756;-78
2023/07/21 01:42:44;;;;;;;5.80;5.30;;;16.70;79.40;;;;;;5002079;28;20430;-77
2023/07/21 01:45:12;;;;;;;5.07;4.67;;;16.70;80.10;;;;;;5001621;28;20515;-76
2023/07/21 01:47:42;;;;;;;5.67;4.70;;;16.70;80.00;;;;;;5001518;28;20442;-79
2023/07/21 01:50:13;;;;;;;7.20;6.03;;;16.70;80.30;;;;;;5002182;28;20449;-79
2023/07/21 01:52:43;;;;;;;5.07;4.63;;;16.60;79.90;;;;;;5001293;28;20441;-77
2023/07/21 01:55:19;;;;;;;5.87;5.30;;;16.60;80.40;;;;;;5001672;28;20478;-78
2023/07/21 01:57:55;;;;;;;5.70;5.17;;;16.50;80.30;;;;;;5001396;28;20435;-76
2023/07/21 02:00:23;;;;;;;6.17;5.67;;;16.50;80.40;;;;;;5001360;28;20799;-78
2023/07/21 02:02:51;;;;;;;5.53;5.07;;;16.50;80.60;;;;;;5001060;28;20489;-77
2023/07/21 02:05:20;;;;;;;5.40;5.00;;;16.50;80.90;;;;;;5001150;28;20813;-77
2023/07/21 02:07:49;;;;;;;6.23;5.60;;;16.50;81.20;;;;;;5001270;28;20445;-77
2023/07/21 02:10:17;;;;;;;6.10;5.70;;;16.40;81.50;;;;;;5001245;28;20486;-76
2023/07/21 02:12:44;;;;;;;5.27;4.87;;;16.40;81.10;;;;;;4967792;28;20844;-80
2023/07/21 02:15:13;;;;;;;5.87;5.27;;;16.40;80.90;;;;;;5000878;28;20467;-79
2023/07/21 02:17:41;;;;;;;5.60;5.20;;;16.40;81.00;;;;;;5000992;28;20701;-78
2023/07/21 02:20:11;;;;;;;8.03;5.03;;;16.30;81.60;;;;;;5000977;28;20518;-77
2023/07/21 02:22:40;;;;;;;6.37;5.73;;;16.30;81.20;;;;;;5001201;28;20433;-79
2023/07/21 02:25:11;;;;;;;5.57;5.13;;;16.30;81.60;;;;;;5000992;28;20442;-77
2023/07/21 02:27:38;;;;;;;5.57;5.07;;;16.20;81.80;;;;;;5000153;28;20462;-76
2023/07/21 02:30:06;;;;;;;9.30;4.87;;;16.20;82.00;;;;;;5001077;28;20661;-78
2023/07/21 02:32:33;;;;;;;6.63;5.10;;;16.30;81.50;;;;;;4983284;28;20623;-77
2023/07/21 02:35:00;;;;;;;5.77;5.27;;;16.20;81.50;;;;;;4983610;28;20429;-77
2023/07/21 02:37:27;;;;;;;5.97;5.47;;;16.20;81.30;;;;;;5000807;28;20439;-77
2023/07/21 02:39:54;;;;;;;6.33;5.63;;;16.20;81.40;;;;;;4999442;28;20471;-76
2023/07/21 02:42:21;;;;;;;5.77;5.00;;;16.10;81.90;;;;;;5000738;28;20619;-77
2023/07/21 02:44:48;;;;;;;6.40;5.80;;;16.10;81.90;;;;;;5000844;28;20439;-77
2023/07/21 02:47:16;;;;;;;6.30;5.90;;;16.10;82.00;;;;;;5000826;28;20471;-79
2023/07/21 02:49:43;;;;;;;5.33;4.93;;;16.00;82.40;;;;;;5000741;28;20483;-77
2023/07/21 02:52:11;;;;;;;6.93;6.23;;;16.00;82.60;;;;;;5000882;28;20603;-77
2023/07/21 02:54:38;;;;;;;5.73;5.20;;;15.90;82.60;;;;;;5001009;28;20517;-77
2023/07/21 02:57:07;;;;;;;6.40;5.90;;;16.00;82.50;;;;;;5001127;28;20436;-76
2023/07/21 02:59:35;;;;;;;7.00;6.40;;;15.90;82.60;;;;;;5004035;28;20438;-76
2023/07/21 03:02:02;;;;;;;6.53;5.93;;;15.90;82.60;;;;;;4983511;28;20475;-77
2023/07/21 03:04:31;;;;;;;6.77;6.17;;;16.00;82.70;;;;;;5000766;28;20744;-77
2023/07/21 03:07:00;;;;;;;7.20;6.60;;;15.90;83.00;;;;;;5000448;28;20410;-78
2023/07/21 03:09:29;;;;;;;7.87;7.07;;;15.90;82.90;;;;;;4983709;28;20434;-77
2023/07/21 03:11:57;;;;;;;7.33;6.80;;;16.00;82.20;;;;;;4999228;28;20489;-78
2023/07/21 03:14:24;;;;;;;6.70;6.20;;;16.20;82.70;;;;;;5001025;28;20471;-78
2023/07/21 03:16:51;;;;;;;6.27;5.77;;;16.00;82.60;;;;;;5004187;28;20508;-76
2023/07/21 03:19:18;;;;;;;6.23;5.83;;;16.00;83.00;;;;;;5004439;28;20478;-79
2023/07/21 03:21:45;;;;;;;5.40;5.00;;;16.00;83.00;;;;;;5003872;28;20601;-76
2023/07/21 03:24:14;;;;;;;6.20;5.70;;;16.00;82.70;;;;;;5003619;28;20481;-80
2023/07/21 03:26:41;;;;;;;6.17;5.57;;;16.10;83.20;;;;;;5003847;28;20820;-77
2023/07/21 03:29:09;;;;;;;5.67;5.27;;;16.00;83.00;;;;;;5003869;28;20643;-77
2023/07/21 03:31:36;;;;;;;5.07;4.70;;;16.00;81.80;;;;;;5003796;28;20577;-77
2023/07/21 03:34:04;;;;;;;5.70;5.30;;;16.20;81.70;;;;;;5003998;28;20474;-80
2023/07/21 03:36:30;;;;;;;5.43;5.03;;;16.20;81.40;;;;;;5003674;28;20499;-78
2023/07/21 03:38:57;;;;;;;5.90;5.50;;;16.20;81.60;;;;;;5003673;28;20494;-79
2023/07/21 03:41:24;;;;;;;6.47;5.80;;;16.10;81.30;;;;;;5004010;28;20856;-78
2023/07/21 03:43:51;;;;;;;6.07;5.57;;;16.10;81.40;;;;;;5003753;28;20465;-79
2023/07/21 03:46:18;;;;;;;5.77;5.30;;;16.30;81.20;;;;;;5003542;28;20410;-76
2023/07/21 03:48:45;;;;;;;6.13;5.63;;;16.30;80.60;;;;;;5003320;28;20439;-78
2023/07/21 03:51:13;;;;;;;6.33;5.83;;;16.20;80.80;;;;;;5003396;28;20651;-78
2023/07/21 03:53:40;;;;;;;6.20;5.70;;;16.30;80.90;;;;;;5003331;28;20482;-78
2023/07/21 03:56:07;;;;;;;5.93;5.43;;;16.30;81.10;;;;;;5003381;28;20628;-77
2023/07/21 03:58:34;;;;;;;5.40;5.00;;;16.20;80.70;;;;;;5003765;28;20498;-77
2023/07/21 04:01:01;;;;;;;7.20;6.33;;;16.50;80.40;;;;;;5003235;28;20497;-78
2023/07/21 04:03:29;;;;;;;7.60;5.20;;;16.50;80.00;;;;;;5002106;28;20499;-78
2023/07/21 04:05:57;;;;;;;6.47;5.90;;;16.60;79.90;;;;;;5003345;28;20455;-81
2023/07/21 04:08:24;;;;;;;6.30;5.73;;;16.50;79.30;;;;;;5002948;28;20629;-78
2023/07/21 04:10:51;;;;;;;7.23;5.43;;;16.60;79.30;;;;;;5003566;28;20416;-79
2023/07/21 04:13:18;;;;;;;5.70;5.20;;;16.80;78.70;;;;;;4985868;28;20645;-80
2023/07/21 04:15:50;;;;;;;5.70;5.20;;;16.80;78.70;;;;;;5001895;28;20446;-78
2023/07/21 04:18:17;;;;;;;6.80;6.30;;;16.90;78.30;;;;;;5003408;28;20668;-78
2023/07/21 04:20:44;;;;;;;6.67;6.27;;;17.00;78.00;;;;;;5001935;28;20503;-76
2023/07/21 04:23:12;;;;;;;5.93;5.43;;;17.00;78.10;;;;;;5002757;28;20660;-78
2023/07/21 04:25:38;;;;;;;8.83;8.00;;;17.00;77.90;;;;;;5002762;28;20410;-78
2023/07/21 04:28:06;;;;;;;8.13;7.23;;;17.10;77.60;;;;;;5003324;28;20468;-78
2023/07/21 04:30:33;;;;;;;8.20;7.50;;;17.10;77.50;;;;;;5003200;28;20439;-79
2023/07/21 04:33:00;;;;;;;8.97;8.07;;;17.30;77.30;;;;;;5003271;28;20506;-78
2023/07/21 04:35:27;;;;;;;8.37;7.77;;;17.30;76.90;;;;;;5002276;28;20472;-77
2023/07/21 04:37:54;;;;;;;7.73;7.23;;;17.40;76.60;;;;;;5007475;28;20495;-78
2023/07/21 04:40:21;;;;;;;8.03;6.90;;;17.40;75.70;;;;;;5015001;28;20503;-80
2023/07/21 04:42:48;;;;;;;9.23;8.23;;;17.50;75.20;;;;;;5014495;28;20481;-79
2023/07/21 04:45:15;;;;;;;8.33;7.67;;;17.60;75.20;;;;;;5003613;28;20514;-78
2023/07/21 04:47:42;;;;;;;6.63;6.13;;;17.60;75.40;;;;;;5002902;28;20455;-77
2023/07/21 04:50:10;;;;;;;7.17;6.57;;;17.70;74.80;;;;;;5002750;28;20768;-77
2023/07/21 04:52:37;;;;;;;5.37;4.93;;;17.60;73.80;;;;;;5002511;28;20480;-78
2023/07/21 04:55:05;;;;;;;7.17;6.57;;;17.70;74.50;;;;;;5003177;28;20494;-77
2023/07/21 04:57:33;;;;;;;5.23;4.80;;;17.70;74.00;;;;;;5002644;28;20607;-77
2023/07/21 05:00:01;;;;;;;7.30;4.97;;;17.80;73.70;;;;;;5001483;28;20503;-77
2023/07/21 05:02:28;;;;;;;7.17;5.30;;;17.90;73.20;;;;;;5012471;28;20514;-81
2023/07/21 05:04:57;;;;;;;5.70;5.20;;;17.90;71.20;;;;;;5008285;28;20446;-77
2023/07/21 05:07:26;;;;;;;6.33;4.90;;;18.00;71.70;;;;;;5002946;28;20473;-78
2023/07/21 05:09:55;;;;;;;6.57;5.00;;;18.10;70.70;;;;;;5002799;28;20414;-77
2023/07/21 05:12:25;;;;;;;5.47;4.97;;;18.10;71.10;;;;;;5002692;28;20609;-78
2023/07/21 05:14:53;;;;;;;5.33;4.83;;;18.20;70.90;;;;;;5001454;28;20753;-77
2023/07/21 05:17:20;;;;;;;5.37;4.73;;;18.40;69.70;;;;;;5003734;28;20454;-77
2023/07/21 05:19:47;;;;;;;5.93;5.40;;;18.50;67.50;;;;;;5004998;28;20436;-78
2023/07/21 05:22:14;;;;;;;6.10;5.10;;;18.60;68.20;;;;;;5003399;28;20454;-78
2023/07/21 05:24:43;;;;;;;5.13;4.70;;;18.50;68.40;;;;;;5002764;28;20684;-77
2023/07/21 05:27:10;;;;;;;6.63;4.33;;;18.70;67.70;;;;;;5002597;28;20443;-77
2023/07/21 05:29:37;;;;;;;4.83;3.60;;;18.80;67.00;;;;;;5002078;28;20473;-77
2023/07/21 05:32:05;;;;;;;5.80;3.70;;;18.90;64.50;;;;;;5001984;28;20449;-78
2023/07/21 05:34:33;;;;;;;4.47;3.77;;;18.80;64.80;;;;;;5002853;28;20461;-77
2023/07/21 05:37:01;;;;;;;5.57;4.73;;;18.80;65.50;;;;;;4985454;28;20428;-77
2023/07/21 05:39:29;;;;;;;7.50;3.50;;;18.90;63.80;;;;;;5002357;28;20502;-76
2023/07/21 05:41:58;;;;;;;4.90;3.43;;;19.10;63.40;;;;;;5003950;28;20701;-78
2023/07/21 05:44:30;;;;;;;5.37;3.50;;;19.10;61.50;;;;;;4986291;28;20415;-77
2023/07/21 05:46:58;;;;;;;3.63;3.07;;;19.10;62.10;;;;;;5007334;28;20432;-77
2023/07/21 05:49:25;;;;;;;2.93;2.70;;;19.30;61.00;;;;;;5002968;28;20451;-76
2023/07/21 05:51:57;;;;;;;4.03;3.20;;;19.30;59.40;;;;;;5003398;28;20478;-77
2023/07/21 05:54:23;;;;;;;4.57;3.63;;;19.50;60.70;;;;;;5006240;28;20410;-78
2023/07/21 05:56:56;;;;;;;3.53;3.23;;;19.60;60.10;;;;;;5006560;28;20470;-76
2023/07/21 05:59:23;;;;;;;3.77;3.40;;;19.80;59.50;;;;;;5003577;28;20472;-75
2023/07/21 06:01:51;;;;;;;3.37;3.07;;;19.60;59.50;;;;;;5002627;28;20569;-77
2023/07/21 06:04:19;;;;;;;4.73;3.63;;;19.80;59.80;;;;;;5002885;28;20434;-77
2023/07/21 06:06:46;;;;;;;3.33;3.03;;;20.00;59.30;;;;;;5002881;28;20692;-75
2023/07/21 06:09:13;;;;;;;3.90;3.57;;;20.20;57.60;;;;;;5002214;28;20453;-76
2023/07/21 06:11:40;;;;;;;6.37;2.90;;;20.50;56.90;;;;;;5003156;28;20585;-77
2023/07/21 06:14:07;;;;;;;2.77;2.57;;;20.50;56.30;;;;;;5002414;28;20465;-75
2023/07/21 06:16:35;;;;;;;3.30;3.00;;;20.60;54.50;;;;;;5002471;28;20474;-77
2023/07/21 06:19:02;;;;;;;3.40;3.03;;;20.60;54.90;;;;;;5002202;28;20543;-78
2023/07/21 06:21:29;;;;;;;3.20;2.90;;;20.60;55.70;;;;;;5001574;28;20522;-77
2023/07/21 06:23:56;;;;;;;3.57;3.27;;;20.80;54.60;;;;;;5001051;28;20574;-76
2023/07/21 06:26:23;;;;;;;3.37;2.80;;;21.10;54.30;;;;;;5002289;28;20414;-76
2023/07/21 06:28:51;;;;;;;6.40;2.63;;;21.40;54.00;;;;;;5002479;28;20805;-76
2023/07/21 06:31:18;;;;;;;3.13;2.83;;;21.70;53.40;;;;;;5002159;28;20409;-76
2023/07/21 06:33:46;;;;;;;6.20;3.50;;;22.00;53.30;;;;;;5002604;28;20803;-77
2023/07/21 06:36:13;;;;;;;4.20;2.70;;;21.90;54.20;;;;;;5003267;28;20761;-76
2023/07/21 06:38:40;;;;;;;6.33;3.80;;;22.20;53.30;;;;;;5001556;28;20413;-76
2023/07/21 06:41:07;;;;;;;5.00;3.20;;;22.50;52.90;;;;;;5002450;28;20413;-76
2023/07/21 06:43:34;;;;;;;5.30;3.47;;;22.60;50.80;;;;;;5002056;28;20645;-76
2023/07/21 06:46:03;;;;;;;3.00;2.70;;;22.60;50.20;;;;;;5002661;28;20499;-76
2023/07/21 06:48:31;;;;;;;4.63;2.93;;;22.70;51.10;;;;;;5002391;28;20418;-75
2023/07/21 06:50:58;;;;;;;4.07;2.87;;;23.10;50.00;;;;;;5005912;28;20478;-74
2023/07/21 06:53:25;;;;;;;4.83;3.03;;;23.30;49.90;;;;;;5006082;28;20515;-75
2023/07/21 06:55:54;;;;;;;4.07;2.73;;;24.00;48.10;;;;;;5005108;28;20482;-76
2023/07/21 06:58:22;;;;;;;3.90;3.40;;;24.50;46.50;;;;;;5005331;28;20474;-76
2023/07/21 07:00:50;;;;;;;2.73;2.50;;;24.60;46.80;;;;;;5005916;28;20503;-76
2023/07/21 07:03:16;;;;;;;3.00;2.80;;;25.00;45.00;;;;;;5005753;28;20538;-77
2023/07/21 07:05:45;;;;;;;3.00;2.67;;;24.90;44.50;;;;;;5005800;28;20435;-77
2023/07/21 07:08:12;;;;;;;3.30;2.67;;;25.00;44.90;;;;;;5006337;28;20463;-76
2023/07/21 07:10:39;;;;;;;4.80;2.93;;;24.90;44.90;;;;;;5006005;28;20620;-75
2023/07/21 07:13:07;;;;;;;6.00;2.30;;;25.10;45.40;;;;;;5005555;28;20512;-75
2023/07/21 07:15:34;;;;;;;2.90;2.70;;;25.20;43.30;;;;;;5005993;28;20511;-74
2023/07/21 07:18:01;;;;;;;2.50;2.20;;;25.10;43.20;;;;;;5005913;28;20451;-77
2023/07/21 07:20:28;;;;;;;3.10;2.40;;;25.20;43.00;;;;;;5004100;28;20626;-77
2023/07/21 07:22:56;;;;;;;2.67;2.47;;;25.70;43.50;;;;;;5004504;28;20454;-78
2023/07/21 07:25:25;;;;;;;2.23;2.13;;;25.90;41.40;;;;;;5005693;28;20504;-76
2023/07/21 07:27:53;;;;;;;2.30;2.20;;;26.40;39.80;;;;;;5005795;28;20512;-76
2023/07/21 07:30:20;;;;;;;2.70;2.27;;;26.40;37.50;;;;;;5004394;28;20692;-75
2023/07/21 07:32:48;;;;;;;2.40;2.20;;;26.70;38.50;;;;;;5006389;28;20454;-77
2023/07/21 07:35:19;;;;;;;2.80;2.60;;;27.00;37.00;;;;;;5005258;28;20451;-76
2023/07/21 07:37:46;;;;;;;1.93;1.80;;;27.20;38.00;;;;;;5005530;28;20466;-76
2023/07/21 07:40:13;;;;;;;2.33;2.00;;;27.00;36.60;;;;;;5004919;28;20435;-78
2023/07/21 07:42:40;;;;;;;2.13;1.97;;;28.00;35.90;;;;;;5005353;28;20500;-77
2023/07/21 07:45:10;;;;;;;2.27;1.80;;;28.90;34.60;;;;;;5003675;28;20462;-75
2023/07/21 07:47:37;;;;;;;1.80;1.70;;;28.80;34.00;;;;;;5004913;28;20783;-76
2023/07/21 07:50:05;;;;;;;3.03;2.30;;;28.80;33.10;;;;;;5014437;28;20491;-76
2023/07/21 07:52:32;;;;;;;1.87;1.77;;;29.30;32.30;;;;;;5017506;28;20467;-77
2023/07/21 07:54:59;;;;;;;2.70;2.50;;;29.00;32.90;;;;;;5008980;28;20432;-75
2023/07/21 07:57:27;;;;;;;2.27;2.07;;;29.80;32.70;;;;;;5004456;28;20475;-76
2023/07/21 07:59:54;;;;;;;1.93;1.60;;;30.40;30.40;;;;;;5002849;28;20439;-76
2023/07/21 08:02:21;;;;;;;2.20;1.73;;;30.50;29.20;;;;;;5004071;28;20498;-77
2023/07/21 08:04:49;;;;;;;2.90;2.67;;;31.90;28.80;;;;;;5004253;28;20466;-76
2023/07/21 08:07:18;;;;;;;1.53;1.43;;;31.50;29.30;;;;;;5004542;28;20435;-76
2023/07/21 08:09:45;;;;;;;2.37;2.27;;;31.70;27.70;;;;;;5003280;28;20440;-75
2023/07/21 08:12:12;;;;;;;2.33;1.80;;;32.00;27.50;;;;;;5003809;28;20791;-75
2023/07/21 08:14:39;;;;;;;2.00;1.90;;;31.50;29.60;;;;;;5004042;28;20442;-77
2023/07/21 08:17:06;;;;;;;3.97;2.10;;;31.80;28.10;;;;;;5004137;28;20440;-77
2023/07/21 08:19:33;;;;;;;1.87;1.77;;;31.10;29.30;;;;;;5004380;28;20447;-75
2023/07/21 08:22:07;;;;;;;1.93;1.83;;;31.10;30.00;;;;;;5004428;28;20644;-75
2023/07/21 08:24:34;;;;;;;2.60;1.60;;;30.70;30.70;;;;;;5002392;28;20463;-76
2023/07/21 08:27:04;;;;;;;1.70;1.60;;;31.30;32.10;;;;;;4986584;28;20439;-76
2023/07/21 08:29:31;;;;;;;2.17;2.07;;;30.70;31.10;;;;;;5004470;28;20513;-76
2023/07/21 08:31:59;;;;;;;1.87;1.77;;;30.10;30.70;;;;;;5003260;28;20474;-78
2023/07/21 08:34:26;;;;;;;2.27;2.07;;;30.20;30.00;;;;;;5002508;28;20660;-79
2023/07/21 08:36:53;;;;;;;2.43;2.20;;;29.20;32.50;;;;;;5002178;28;20502;-78
2023/07/21 08:39:21;;;;;;;2.57;2.27;;;29.10;32.70;;;;;;5003105;28;20454;-74
2023/07/21 08:41:50;;;;;;;2.27;2.17;;;28.70;34.90;;;;;;5004010;28;20448;-79
2023/07/21 08:44:19;;;;;;;3.07;1.80;;;28.50;32.60;;;;;;5003659;28;20435;-77
2023/07/21 08:46:46;;;;;;;2.50;2.30;;;27.70;33.00;;;;;;5003956;28;20439;-76
2023/07/21 08:49:17;;;;;;;2.60;2.40;;;28.20;34.00;;;;;;5003590;28;20439;-76
2023/07/21 08:51:44;;;;;;;1.50;1.40;;;29.00;32.90;;;;;;5003447;28;20797;-77
2023/07/21 08:54:12;;;;;;;4.53;2.60;;;29.70;30.60;;;;;;5003770;28;20439;-77
2023/07/21 08:56:39;;;;;;;1.90;1.80;;;29.80;30.50;;;;;;5003203;28;20435;-77
2023/07/21 08:59:07;;;;;;;1.70;1.60;;;28.50;30.00;;;;;;5003873;28;20447;-76
2023/07/21 09:01:34;;;;;;;1.90;1.80;;;28.90;31.60;;;;;;5004331;28;20465;-76
2023/07/21 09:04:01;;;;;;;3.77;1.97;;;28.20;33.50;;;;;;5003389;28;20479;-79
2023/07/21 09:06:28;;;;;;;2.70;1.80;;;27.90;35.10;;;;;;5002475;28;20514;-76
2023/07/21 09:08:56;;;;;;;3.17;2.50;;;27.70;34.20;;;;;;5003220;28;20439;-75
2023/07/21 09:11:24;;;;;;;2.43;2.13;;;27.00;36.60;;;;;;5002402;28;20431;-76
2023/07/21 09:13:56;;;;;;;2.07;1.97;;;27.00;36.70;;;;;;5002352;28;20614;-75
2023/07/21 09:16:23;;;;;;;1.90;1.80;;;26.80;36.10;;;;;;5002944;28;20463;-78
2023/07/21 09:18:52;;;;;;;4.17;2.00;;;26.70;36.80;;;;;;5001676;28;20447;-77
2023/07/21 09:21:23;;;;;;;1.90;1.80;;;26.50;36.90;;;;;;5002970;28;20464;-77
2023/07/21 09:23:51;;;;;;;2.70;2.10;;;26.70;35.70;;;;;;5001415;28;20608;-76
2023/07/21 09:26:21;;;;;;;1.97;1.60;;;26.50;37.00;;;;;;5002947;28;20506;-77
2023/07/21 09:28:49;;;;;;;1.80;1.70;;;25.90;37.20;;;;;;5002904;28;20427;-77
2023/07/21 09:31:17;;;;;;;1.83;1.73;;;26.00;38.20;;;;;;5002719;28;20463;-77
2023/07/21 09:33:45;;;;;;;1.80;1.67;;;25.90;39.10;;;;;;5002819;28;20514;-77
2023/07/21 09:36:15;;;;;;;1.87;1.77;;;26.30;35.90;;;;;;4985176;28;20794;-78
2023/07/21 09:38:44;;;;;;;1.70;1.60;;;26.70;35.50;;;;;;5002986;28;20440;-77
2023/07/21 09:41:13;;;;;;;3.23;1.70;;;26.50;36.70;;;;;;4985190;28;20846;-78
2023/07/21 09:43:41;;;;;;;1.90;1.80;;;26.50;35.50;;;;;;5001879;28;20533;-76
2023/07/21 09:46:09;;;;;;;1.80;1.70;;;26.00;35.40;;;;;;5002831;28;20675;-77
2023/07/21 09:48:44;;;;;;;5.70;2.03;;;26.40;36.30;;;;;;5002690;28;20466;-76
2023/07/21 09:51:12;;;;;;;2.37;2.17;;;27.10;33.70;;;;;;5002136;28;20434;-77
2023/07/21 09:53:41;;;;;;;3.87;1.90;;;27.10;35.10;;;;;;4984847;28;20551;-78
2023/07/21 09:56:09;;;;;;;1.70;1.60;;;26.70;34.70;;;;;;4984541;28;20435;-76
2023/07/21 09:58:45;;;;;;;3.07;1.80;;;26.90;35.60;;;;;;5002601;28;20443;-76
2023/07/21 10:01:14;;;;;;;2.27;2.07;;;27.40;35.60;;;;;;4984896;28;20469;-76
2023/07/21 10:03:41;;;;;;;3.03;2.13;;;27.60;34.30;;;;;;5001090;28;20515;-76
2023/07/21 10:06:09;;;;;;;3.43;2.63;;;26.80;35.60;;;;;;5001716;28;20634;-76
2023/07/21 10:08:38;;;;;;;1.90;1.80;;;27.30;35.60;;;;;;5002316;28;20498;-77
2023/07/21 10:11:07;;;;;;;2.17;2.07;;;27.90;34.90;;;;;;5001815;28;20814;-76
2023/07/21 10:13:44;;;;;;;2.13;1.93;;;27.60;35.40;;;;;;5001938;28;20447;-75
2023/07/21 10:16:12;;;;;;;2.10;1.90;;;27.70;34.60;;;;;;4985256;28;20463;-76
2023/07/21 10:19:05;;;;;;;2.10;2.00;;;28.10;33.60;;;;;;5002466;28;20486;-77
2023/07/21 10:21:49;;;;;;;1.90;1.80;;;26.90;35.40;;;;;;5001764;28;20756;-77
2023/07/21 10:24:25;;;;;;;2.20;2.00;;;26.80;35.50;;;;;;5002073;28;20481;-77
2023/07/21 10:26:55;;;;;;;1.60;1.50;;;27.00;36.40;;;;;;5001913;28;20432;-75
2023/07/21 10:29:22;;;;;;;1.70;1.60;;;27.30;35.10;;;;;;5001261;28;20549;-78
2023/07/21 10:31:53;;;;;;;1.90;1.80;;;26.80;35.30;;;;;;5001159;28;20826;-76
2023/07/21 10:34:46;;;;;;;2.30;1.80;;;26.50;35.30;;;;;;5001897;28;20483;-76
2023/07/21 10:37:14;;;;;;;1.70;1.60;;;26.30;36.10;;;;;;4981950;28;20492;-76
2023/07/21 10:39:51;;;;;;;1.90;1.80;;;26.00;37.40;;;;;;5002047;28;20490;-76
2023/07/21 10:42:18;;;;;;;2.07;1.97;;;26.00;37.20;;;;;;5001155;28;20927;-75
2023/07/21 10:44:47;;;;;;;2.30;2.10;;;26.40;37.40;;;;;;5002058;28;20458;-76
2023/07/21 10:47:19;;;;;;;2.70;2.50;;;26.30;36.40;;;;;;4985726;28;20477;-78
2023/07/21 10:49:48;;;;;;;2.30;2.00;;;26.70;36.00;;;;;;5002163;28;20424;-78
2023/07/21 10:52:16;;;;;;;2.93;1.93;;;26.60;35.50;;;;;;5001763;28;20613;-79
2023/07/21 10:54:43;;;;;;;2.10;1.90;;;26.30;35.20;;;;;;4985595;28;20467;-77
2023/07/21 10:57:11;;;;;;;6.77;2.27;;;26.10;35.10;;;;;;5007170;28;20443;-77
2023/07/21 10:59:39;;;;;;;2.10;2.00;;;26.00;36.80;;;;;;5011125;28;20458;-76
2023/07/21 11:02:07;;;;;;;2.17;1.97;;;25.70;37.40;;;;;;5010034;28;20435;-76
2023/07/21 11:04:40;;;;;;;2.13;2.03;;;26.10;38.10;;;;;;5001570;28;20803;-77
2023/07/21 11:07:08;;;;;;;1.83;1.73;;;26.10;36.00;;;;;;5000972;28;20432;-76
2023/07/21 11:09:43;;;;;;;3.40;2.30;;;25.90;35.20;;;;;;5001453;28;20487;-76
2023/07/21 11:12:11;;;;;;;3.40;2.20;;;26.10;37.60;;;;;;5001015;28;20517;-76
2023/07/21 11:14:37;;;;;;;4.03;2.23;;;26.60;36.00;;;;;;5000791;28;20467;-74
2023/07/21 11:17:05;;;;;;;2.40;2.10;;;27.30;35.20;;;;;;5000300;28;20463;-77
2023/07/21 11:19:33;;;;;;;2.00;1.90;;;27.90;32.70;;;;;;5001089;28;20480;-75
2023/07/21 11:22:03;;;;;;;2.37;2.03;;;27.50;32.40;;;;;;5001124;28;20566;-77
2023/07/21 11:24:31;;;;;;;2.00;1.90;;;27.20;32.70;;;;;;5001803;28;20590;-76
2023/07/21 11:27:05;;;;;;;2.37;2.20;;;27.60;32.30;;;;;;5001110;28;20502;-75
2023/07/21 11:29:42;;;;;;;2.93;1.90;;;27.20;32.90;;;;;;5001227;28;20431;-76
2023/07/21 11:32:22;;;;;;;2.10;2.00;;;27.30;33.10;;;;;;5001549;28;20451;-76
2023/07/21 11:34:58;;;;;;;1.97;1.87;;;27.50;32.90;;;;;;5000771;28;20446;-76
2023/07/21 11:37:34;;;;;;;2.00;1.90;;;27.00;34.20;;;;;;5004979;28;20526;-82
2023/07/21 11:40:08;;;;;;;2.47;2.27;;;27.60;33.00;;;;;;4988011;28;20430;-76
2023/07/21 11:42:43;;;;;;;2.43;2.20;;;27.30;33.40;;;;;;5004942;28;20447;-78
2023/07/21 11:45:39;;;;;;;1.83;1.73;;;27.80;31.80;;;;;;5005931;28;20446;-76
2023/07/21 11:48:24;;;;;;;3.43;2.00;;;27.90;31.40;;;;;;5004573;28;20443;-77
2023/07/21 11:50:54;;;;;;;2.50;2.13;;;28.30;31.20;;;;;;5005126;28;20439;-76
2023/07/21 11:53:23;;;;;;;2.27;2.17;;;28.50;31.20;;;;;;5005650;28;20414;-76
2023/07/21 11:55:50;;;;;;;4.50;2.30;;;28.40;31.40;;;;;;5005562;28;20443;-77
2023/07/21 11:58:17;;;;;;;2.50;1.90;;;28.60;32.40;;;;;;5005430;28;20457;-76
2023/07/21 12:00:44;;;;;;;2.60;2.33;;;28.60;33.00;;;;;;5005318;28;20442;-75
2023/07/21 12:03:12;;;;;;;2.70;1.70;;;28.80;32.50;;;;;;5005662;28;20478;-75
2023/07/21 12:05:39;;;;;;;1.73;1.63;;;29.10;32.00;;;;;;5005064;28;20471;-77
2023/07/21 12:08:06;;;;;;;2.30;2.20;;;28.60;30.70;;;;;;5005055;28;20463;-78
2023/07/21 12:10:33;;;;;;;2.30;2.20;;;28.10;31.60;;;;;;5003851;28;20470;-75
2023/07/21 12:13:03;;;;;;;2.57;2.37;;;28.10;33.10;;;;;;5005011;28;20439;-76
2023/07/21 12:15:31;;;;;;;3.93;2.60;;;28.20;33.70;;;;;;5003344;28;20752;-75
2023/07/21 12:17:58;;;;;;;2.23;2.03;;;28.00;33.50;;;;;;5004511;28;20435;-76
2023/07/21 12:20:26;;;;;;;2.50;2.30;;;28.10;33.40;;;;;;5004640;28;20452;-75
2023/07/21 12:22:53;;;;;;;4.43;2.40;;;28.00;33.40;;;;;;5004418;28;20490;-77
2023/07/21 12:25:20;;;;;;;2.00;1.90;;;27.80;33.60;;;;;;5003283;28;20503;-76
2023/07/21 12:27:49;;;;;;;2.30;2.20;;;27.60;33.90;;;;;;5004547;28;20597;-76
2023/07/21 12:30:19;;;;;;;2.03;1.80;;;27.70;33.10;;;;;;5003516;28;20439;-76
2023/07/21 12:32:46;;;;;;;2.43;2.33;;;27.70;32.70;;;;;;5004218;28;20436;-76
2023/07/21 12:35:13;;;;;;;2.20;2.10;;;27.50;33.40;;;;;;5004180;28;20641;-76
2023/07/21 12:37:40;;;;;;;2.30;2.20;;;28.20;31.90;;;;;;5004443;28;20799;-76
2023/07/21 12:40:12;;;;;;;2.80;2.30;;;28.10;32.30;;;;;;5004468;28;20459;-76
2023/07/21 12:42:40;;;;;;;2.17;2.07;;;28.30;32.30;;;;;;5003269;28;20427;-77
2023/07/21 12:45:08;;;;;;;2.37;2.00;;;28.30;31.40;;;;;;5003903;28;20510;-76
2023/07/21 12:47:36;;;;;;;3.00;2.37;;;28.00;32.90;;;;;;5004011;28;20450;-77
2023/07/21 12:50:04;;;;;;;2.30;2.10;;;28.10;32.40;;;;;;5004203;28;20496;-78
2023/07/21 12:52:31;;;;;;;3.30;2.10;;;28.10;31.40;;;;;;5003381;28;20502;-76
2023/07/21 12:54:58;;;;;;;3.13;2.37;;;28.00;32.20;;;;;;5004549;28;20485;-77